createdAt,value
2022-08-26T16:04:09.752Z,7.80
2022-08-26T16:07:43.368Z,6.10
2022-08-26T16:11:23.089Z,5.80
2022-08-26T16:15:01.304Z,10.30
2022-08-26T16:18:40.200Z,8.30
2022-08-26T16:22:17.781Z,4.70
2022-08-26T16:25:55.425Z,3.70
2022-08-26T16:29:33.441Z,6.20
2022-08-26T16:33:14.410Z,9.60
2022-08-26T16:37:06.637Z,5.00
2022-08-26T16:40:44.283Z,3.70
2022-08-26T16:44:22.074Z,6.20
2022-08-26T16:47:59.833Z,6.30
2022-08-26T16:51:38.517Z,5.30
2022-08-26T16:55:16.162Z,3.40
2022-08-26T16:58:53.668Z,2.50
2022-08-26T17:02:32.582Z,2.00
2022-08-26T17:06:11.579Z,2.50
2022-08-26T17:09:49.265Z,3.30
2022-08-26T17:13:35.746Z,3.70
2022-08-26T17:17:14.181Z,3.10
2022-08-26T17:20:52.738Z,2.00
2022-08-26T17:24:33.998Z,2.60
2022-08-26T17:28:13.561Z,1.10
2022-08-26T17:31:51.728Z,3.00
2022-08-26T17:35:28.674Z,1.50
2022-08-26T17:39:05.680Z,2.30
2022-08-26T17:42:43.917Z,4.20
2022-08-26T17:46:21.463Z,2.90
2022-08-26T17:50:00.617Z,1.40
2022-08-26T17:53:39.498Z,1.10
2022-08-26T17:57:16.480Z,1.80
2022-08-26T18:00:56.695Z,1.80
2022-08-26T18:04:34.460Z,4.20
2022-08-26T18:08:12.254Z,3.30
2022-08-26T18:11:51.935Z,5.20
2022-08-26T18:15:29.695Z,3.20
2022-08-26T18:19:07.400Z,3.10
2022-08-26T18:22:47.317Z,3.30
2022-08-26T18:26:37.087Z,3.00
2022-08-26T18:30:18.931Z,4.90
2022-08-26T18:33:58.875Z,5.80
2022-08-26T18:37:36.477Z,3.70
2022-08-26T18:41:14.801Z,4.30
2022-08-26T18:44:51.678Z,5.80
2022-08-26T18:48:29.893Z,5.00
2022-08-26T18:52:07.131Z,4.30
2022-08-26T18:55:45.636Z,5.00
2022-08-26T18:59:28.804Z,8.40
2022-08-26T19:03:08.292Z,16.80
2022-08-26T19:06:57.094Z,49.00
2022-08-26T19:10:39.764Z,28.40
2022-08-26T19:14:18.267Z,22.00
2022-08-26T19:17:55.802Z,7.40
2022-08-26T19:21:35.487Z,11.20
2022-08-26T19:25:12.881Z,4.50
2022-08-26T19:28:51.404Z,4.60
2022-08-26T19:32:30.654Z,4.20
2022-08-26T19:36:14.784Z,7.20
2022-08-26T19:39:52.756Z,2.60
2022-08-26T19:43:30.608Z,2.20
2022-08-26T19:47:11.089Z,1.70
2022-08-26T19:50:48.934Z,2.20
2022-08-26T19:54:26.748Z,2.10
2022-08-26T19:58:03.783Z,1.60
2022-08-26T20:01:41.170Z,2.70
2022-08-26T20:05:21.774Z,2.20
2022-08-26T20:09:00.611Z,1.00
2022-08-26T20:12:37.930Z,2.30
2022-08-26T20:16:17.323Z,1.60
2022-08-26T20:19:55.037Z,1.30
2022-08-26T20:23:32.699Z,1.30
2022-08-26T20:27:11.390Z,1.30
2022-08-26T20:30:48.590Z,3.40
2022-08-26T20:34:27.139Z,1.00
2022-08-26T20:38:04.753Z,2.40
2022-08-26T20:41:44.674Z,2.00
2022-08-26T20:45:22.785Z,1.70
2022-08-26T20:49:00.832Z,0.50
2022-08-26T20:52:38.400Z,1.00
2022-08-26T20:56:18.224Z,1.00
2022-08-26T20:59:55.882Z,1.70
2022-08-26T21:03:33.837Z,3.80
2022-08-26T21:07:11.786Z,2.80
2022-08-26T21:10:49.961Z,0.80
2022-08-26T21:14:30.049Z,1.30
2022-08-26T21:18:07.737Z,0.50
2022-08-26T21:21:47.653Z,1.10
2022-08-26T21:25:25.348Z,2.70
2022-08-26T21:29:05.315Z,1.80
2022-08-26T21:32:43.244Z,2.30
2022-08-26T21:36:20.923Z,7.60
2022-08-26T21:40:00.038Z,6.90
2022-08-26T21:43:39.050Z,11.70
2022-08-26T21:47:17.158Z,7.30
2022-08-26T21:50:54.964Z,13.10
2022-08-26T21:54:32.568Z,9.40
2022-08-26T21:58:10.403Z,9.70
2022-08-26T22:01:48.475Z,6.10
2022-08-26T22:05:27.475Z,6.40
2022-08-26T22:09:06.203Z,7.70
2022-08-26T22:12:43.987Z,3.40
2022-08-26T22:16:21.895Z,7.40
2022-08-26T22:20:00.007Z,8.90
2022-08-26T22:23:38.969Z,11.50
2022-08-26T22:27:16.197Z,7.60
2022-08-26T22:30:53.388Z,6.80
2022-08-26T22:34:30.786Z,10.00
2022-08-26T22:38:09.672Z,10.00
2022-08-26T22:41:48.925Z,5.10
2022-08-26T22:45:27.435Z,7.10
2022-08-26T22:49:04.993Z,7.10
2022-08-26T22:52:42.103Z,6.50
2022-08-26T22:56:21.290Z,10.00
2022-08-26T22:59:58.645Z,12.50
2022-08-26T23:03:37.057Z,5.50
2022-08-26T23:07:14.605Z,6.20
2022-08-26T23:10:52.524Z,8.20
2022-08-26T23:14:32.179Z,5.60
2022-08-26T23:18:10.471Z,4.00
2022-08-26T23:21:49.816Z,5.40
2022-08-26T23:25:28.567Z,4.80
2022-08-26T23:29:07.988Z,8.40
2022-08-26T23:32:45.533Z,5.30
2022-08-26T23:36:23.183Z,4.90
2022-08-26T23:40:09.139Z,4.10
2022-08-26T23:43:46.369Z,2.00
2022-08-26T23:47:25.190Z,5.00
2022-08-26T23:51:03.442Z,5.90
2022-08-26T23:54:41.036Z,3.50
2022-08-26T23:58:20.202Z,4.00
